DW2144 Weather Reports


Display with metric or nautical units.
time (UTC)temp
F
wind
direction
speed
MPH
gust
MPH
rain 1hr
in
rain 24hr
in
rain mn
in
humidity
%
barometer
mb
20210617073132 72 101 0.0 0.0 0.00 0.00 0.00 41 1010.0
20210617071647 74 101 0.0 0.0 0.00 0.00 0.00 37 1010.0
20210617070059 77 101 0.0 2.0 0.00 0.00 0.00 33 1010.1
20210617064616 78 101 0.0 7.0 0.00 0.00 0.00 32 1009.9
20210617063040 76 100 1.0 7.0 0.00 0.00 0.00 33 1009.9
20210617061609 76 89 0.0 3.0 0.00 0.00 0.00 35 1009.9
20210617060122 77 82 0.0 4.0 0.00 0.00 0.00 32 1009.9
20210617054620 78 94 0.0 2.0 0.00 0.00 0.00 33 1009.9
20210617053125 76 86 0.0 4.0 0.00 0.00 0.00 36 1009.8
20210617051706 74 36 0.0 1.0 0.00 0.00 0.00 40 1009.8
20210617050113 75 36 0.0 0.0 0.00 0.00 0.00 40 1009.9
20210617044650 75 36 0.0 0.0 0.00 0.00 0.00 44 1009.8
20210617043112 75 36 0.0 1.0 0.00 0.00 0.00 46 1009.8
20210617041620 76 36 0.0 0.0 0.00 0.00 0.00 46 1009.8
20210617040111 78 36 0.0 0.0 0.00 0.00 0.00 44 1009.7
20210617034605 80 36 0.0 0.0 0.00 0.00 0.00 41 1009.8
20210617033048 82 36 0.0 0.0 0.00 0.00 0.00 38 1009.7
20210617031545 85 36 0.0 0.0 0.00 0.00 0.00 35 1009.7
20210617030119 87 36 0.0 0.0 0.00 0.00 0.00 32 1009.6
20210617024651 89 36 0.0 0.0 0.00 0.00 0.00 31 1009.5
20210617023038 90 36 0.0 3.0 0.00 0.00 0.00 28 1009.6
20210617021614 91 38 0.0 3.0 0.00 0.00 0.00 27 1009.6
20210617020054 92 38 0.0 3.0 0.00 0.00 0.00 26 1009.6
20210617014537 92 38 0.0 2.0 0.00 0.00 0.00 25 1009.5
20210617013058 93 24 0.0 4.0 0.00 0.00 0.00 24 1009.6
20210617011634 93 28 0.0 5.0 0.00 0.00 0.00 23 1009.7
20210617010048 94 321 0.0 3.0 0.00 0.00 0.00 23 1009.8
20210617004536 94 316 0.0 3.0 0.00 0.00 0.00 24 1009.9
20210617003057 94 325 0.0 4.0 0.00 0.00 0.00 24 1010.1
20210617001523 94 351 0.0 3.0 0.00 0.00 0.00 24 1010.3
20210617000022 94 342 1.0 3.0 0.00 0.00 0.00 22 1010.4
20210616234600 94 340 0.0 4.0 0.00 0.00 0.00 22 1010.4
20210616233016 94 355 2.0 8.0 0.00 0.00 0.00 22 1010.7
20210616231522 94 321 2.0 9.0 0.00 0.00 0.00 21 1011.0
20210616230015 94 53 0.0 6.0 0.00 0.00 0.00 22 1010.9
20210616224513 94 360 0.0 6.0 0.00 0.00 0.00 22 1011.2
20210616223006 96 324 0.0 5.0 0.00 0.00 0.00 20 1011.3
20210616221504 98 325 1.0 6.0 0.00 0.00 0.00 20 1011.3
20210616220003 100 350 0.0 1.0 0.00 0.00 0.00 14 1011.5
20210616214651 100 309 0.0 1.0 0.00 0.00 0.00 14 1011.5
20210616213308 99 71 0.0 1.0 0.00 0.00 0.00 14 1011.7
20210616211758 100 306 0.0 1.0 0.00 0.00 0.00 14 1012.0
20210616210237 100 307 0.0 1.0 0.00 0.00 0.00 13 1012.1
20210616204736 99 308 0.0 4.0 0.00 0.00 0.00 12 1012.3
20210616203156 98 306 0.0 4.0 0.00 0.00 0.00 15 1012.4
20210616201611 97 112 0.0 3.0 0.00 0.00 0.00 14 1012.6
20210616200152 96 44 0.0 1.0 0.00 0.00 0.00 18 1012.9
20210616194553 94 95 0.0 1.0 0.00 0.00 0.00 20 1013.1
20210616193205 94 115 0.0 4.0 0.00 0.00 0.00 19 1013.4
20210616191609 93 91 0.0 3.0 0.00 0.00 0.00 22 1013.5
20210616190102 92 19 0.0 2.0 0.00 0.00 0.00 23 1013.8
20210616184539 91 19 0.0 1.0 0.00 0.00 0.00 27 1013.9
20210616183049 89 19 0.0 3.0 0.00 0.00 0.00 26 1014.2
20210616181511 87 80 0.0 2.0 0.00 0.00 0.00 30 1014.1
20210616180010 83 83 0.0 1.0 0.00 0.00 0.00 33 1014.4
20210616174504 82 82 1.0 3.0 0.00 0.00 0.00 33 1014.6
20210616173326 81 75 0.0 3.0 0.00 0.00 0.00 35 1014.7
20210616171635 80 74 0.0 1.0 0.00 0.00 0.00 38 1014.8
20210616170151 77 90 1.0 4.0 0.00 0.00 0.00 40 1015.1
20210616164716 74 109 0.0 3.0 0.00 0.00 0.00 49 1015.3
20210616163117 70 103 0.0 3.0 0.00 0.00 0.00 54 1015.4
20210616161546 69 103 0.0 4.0 0.00 0.00 0.00 54 1015.6
20210616160054 68 101 0.0 1.0 0.00 0.00 0.00 57 1015.7
20210616154629 66 101 0.0 3.0 0.00 0.00 0.00 59 1015.8
20210616153235 65 105 0.0 1.0 0.00 0.00 0.00 60 1015.7
20210616151700 65 105 0.0 2.0 0.00 0.00 0.00 62 1015.8
20210616150122 63 105 0.0 1.0 0.00 0.00 0.00 65 1015.7
20210616144603 60 105 0.0 0.0 0.00 0.00 0.00 72 1015.7
20210616143155 56 105 0.0 0.0 0.00 0.00 0.00 79 1015.6
20210616141558 55 105 0.0 0.0 0.00 0.00 0.00 78 1015.4
20210616140034 55 105 0.0 0.0 0.00 0.00 0.00 78 1015.4
20210616134604 55 105 0.0 0.0 0.00 0.00 0.00 77 1015.5
20210616133126 55 105 0.0 0.0 0.00 0.00 0.00 77 1015.4
20210616131700 55 105 0.0 0.0 0.00 0.00 0.00 75 1015.4
20210616130028 56 105 0.0 0.0 0.00 0.00 0.00 74 1015.2
20210616124540 56 105 0.0 0.0 0.00 0.00 0.00 73 1015.0
20210616123034 57 105 0.0 0.0 0.00 0.00 0.00 71 1014.9
20210616121518 58 105 0.0 0.0 0.00 0.00 0.00 69 1014.7
20210616120027 59 105 0.0 0.0 0.00 0.00 0.00 68 1014.7
20210616114549 59 105 0.0 3.0 0.00 0.00 0.00 69 1014.8
20210616113003 60 105 0.0 0.0 0.00 0.00 0.00 66 1014.8
20210616111747 61 105 0.0 1.0 0.00 0.00 0.00 64 1015.0
20210616110115 61 105 0.0 3.0 0.00 0.00 0.00 63 1015.0
20210616104700 62 112 0.0 3.0 0.00 0.00 0.00 61 1015.2
20210616103131 63 151 0.0 3.0 0.00 0.00 0.00 60 1015.2
20210616101649 63 97 0.0 2.0 0.00 0.00 0.00 59 1015.0
20210616100119 64 94 0.0 3.0 0.00 0.00 0.00 58 1014.9
20210616094602 65 116 0.0 3.0 0.00 0.00 0.00 56 1015.2
20210616093121 65 98 0.0 3.0 0.00 0.00 0.00 55 1015.4
20210616091548 65 75 0.0 4.0 0.00 0.00 0.00 55 1015.3
20210616090238 66 104 2.0 6.0 0.00 0.00 0.00 54 1015.3
20210616084603 66 74 1.0 5.0 0.00 0.00 0.00 53 1015.4
20210616083050 67 106 2.0 6.0 0.00 0.00 0.00 52 1015.5
20210616081620 67 111 2.0 7.0 0.00 0.00 0.00 51 1015.8
20210616080101 67 167 1.0 11.0 0.00 0.00 0.00 50 1015.8
20210616074554 67 87 1.0 4.0 0.00 0.00 0.00 50 1015.8